createdAt,value
2023-03-20T00:01:35.652Z,9.30
2023-03-20T00:04:02.280Z,9.30
2023-03-20T00:06:29.079Z,9.20
2023-03-20T00:08:58.199Z,9.20
2023-03-20T00:11:32.728Z,9.10
2023-03-20T00:14:14.672Z,9.10
2023-03-20T00:16:45.266Z,9.10
2023-03-20T00:19:22.487Z,9.00
2023-03-20T00:21:53.590Z,9.00
2023-03-20T00:24:25.259Z,9.00
2023-03-20T00:26:57.342Z,9.10
2023-03-20T00:29:26.826Z,9.00
2023-03-20T00:31:54.420Z,9.00
2023-03-20T00:34:24.928Z,9.00
2023-03-20T00:36:55.668Z,9.00
2023-03-20T00:39:23.022Z,8.90
2023-03-20T00:41:58.298Z,8.90
2023-03-20T00:44:25.148Z,8.90
2023-03-20T00:46:58.334Z,8.80
2023-03-20T00:49:31.712Z,8.80
2023-03-20T00:52:02.830Z,8.80
2023-03-20T00:54:30.184Z,8.80
2023-03-20T00:57:11.535Z,8.70
2023-03-20T01:00:12.104Z,8.70
2023-03-20T01:02:42.308Z,8.60
2023-03-20T01:05:09.002Z,8.60
2023-03-20T01:07:42.567Z,8.60
2023-03-20T01:10:10.993Z,8.60
2023-03-20T01:12:39.638Z,8.60
2023-03-20T01:15:22.025Z,8.60
2023-03-20T01:17:49.572Z,8.60
2023-03-20T01:20:32.349Z,8.70
2023-03-20T01:23:01.238Z,8.70
2023-03-20T01:25:28.108Z,8.70
2023-03-20T01:27:57.917Z,8.70
2023-03-20T01:30:30.732Z,8.70
2023-03-20T01:33:06.088Z,8.70
2023-03-20T01:35:36.646Z,8.70
2023-03-20T01:38:13.033Z,8.70
2023-03-20T01:41:21.448Z,8.60
2023-03-20T01:43:49.429Z,8.60
2023-03-20T01:46:31.043Z,8.60
2023-03-20T01:49:20.509Z,8.50
2023-03-20T01:51:52.300Z,8.50
2023-03-20T01:54:33.088Z,8.50
2023-03-20T01:57:19.775Z,8.50
2023-03-20T02:00:02.882Z,8.50
2023-03-20T02:02:48.436Z,8.50
2023-03-20T02:05:45.376Z,8.60
2023-03-20T02:08:16.763Z,8.60
2023-03-20T02:10:48.308Z,8.60
2023-03-20T02:13:28.176Z,8.70
2023-03-20T02:15:57.622Z,8.70
2023-03-20T02:18:59.498Z,8.80
2023-03-20T02:21:51.493Z,8.80
2023-03-20T02:24:18.583Z,8.90
2023-03-20T02:27:03.163Z,8.90
2023-03-20T02:29:39.470Z,8.90
2023-03-20T02:32:09.961Z,8.90
2023-03-20T02:34:39.586Z,8.90
2023-03-20T02:37:37.222Z,8.90
2023-03-20T02:40:18.500Z,8.90
2023-03-20T02:42:55.939Z,8.90
2023-03-20T02:45:36.398Z,9.00
2023-03-20T02:48:46.875Z,8.90
2023-03-20T02:51:25.167Z,9.00
2023-03-20T02:54:11.496Z,9.00
2023-03-20T02:56:50.548Z,9.00
2023-03-20T02:59:26.495Z,9.10
2023-03-20T03:02:30.973Z,9.00
2023-03-20T03:05:07.540Z,9.10
2023-03-20T03:07:36.211Z,9.10
2023-03-20T03:10:19.176Z,9.10
2023-03-20T03:12:52.536Z,9.10
2023-03-20T03:15:27.566Z,9.10
2023-03-20T03:17:57.412Z,9.10
2023-03-20T03:20:38.555Z,9.10
2023-03-20T03:23:29.555Z,9.20
2023-03-20T03:26:04.093Z,9.20
2023-03-20T03:31:43.789Z,9.20
2023-03-20T03:34:19.634Z,9.20
2023-03-20T03:37:09.767Z,9.20
2023-03-20T03:39:48.554Z,9.20
2023-03-20T03:42:39.650Z,9.20
2023-03-20T03:45:29.442Z,9.20
2023-03-20T03:48:02.825Z,9.30
2023-03-20T03:50:47.220Z,9.30
2023-03-20T03:53:21.878Z,9.30
2023-03-20T03:55:55.803Z,9.30
2023-03-20T03:58:40.865Z,9.30
2023-03-20T04:01:16.602Z,9.30
2023-03-20T04:03:51.841Z,9.30
2023-03-20T04:06:19.663Z,9.30
2023-03-20T04:08:49.703Z,9.30
2023-03-20T04:11:19.227Z,9.20
2023-03-20T04:13:50.350Z,9.20
2023-03-20T04:16:21.482Z,9.20
2023-03-20T04:18:54.638Z,9.20
2023-03-20T04:21:22.436Z,9.10
2023-03-20T04:23:51.598Z,9.10
2023-03-20T04:26:21.625Z,9.20
2023-03-20T04:28:50.118Z,9.20
2023-03-20T04:31:32.866Z,9.20
2023-03-20T04:34:36.069Z,9.20
2023-03-20T04:37:27.557Z,9.20
2023-03-20T04:40:03.770Z,9.20
2023-03-20T04:42:30.432Z,9.30
2023-03-20T04:45:01.827Z,9.30
2023-03-20T04:50:38.386Z,9.20
2023-03-20T04:53:05.646Z,9.20
2023-03-20T04:55:35.520Z,9.20
2023-03-20T04:58:05.639Z,9.20
2023-03-20T05:00:38.770Z,9.20
2023-03-20T05:03:09.395Z,9.20
2023-03-20T05:05:38.942Z,9.20
2023-03-20T05:08:07.996Z,9.10
2023-03-20T05:10:37.835Z,9.20
2023-03-20T05:13:31.133Z,9.20
2023-03-20T05:16:16.732Z,9.10
2023-03-20T05:19:10.027Z,9.10
2023-03-20T05:21:58.251Z,9.10
2023-03-20T05:24:54.970Z,9.10
2023-03-20T05:27:46.098Z,9.10
2023-03-20T05:30:28.786Z,9.10
2023-03-20T05:33:14.566Z,9.10
2023-03-20T05:36:07.662Z,9.10
2023-03-20T05:38:57.311Z,9.00
2023-03-20T05:41:51.201Z,9.10
2023-03-20T05:44:38.932Z,9.00
2023-03-20T05:47:18.692Z,9.00
2023-03-20T05:50:01.856Z,9.00
2023-03-20T05:52:58.576Z,9.00
2023-03-20T05:55:46.516Z,9.00
2023-03-20T05:58:34.895Z,9.10
2023-03-20T06:01:27.189Z,9.00
2023-03-20T06:04:11.529Z,9.10
2023-03-20T06:07:11.746Z,9.10
2023-03-20T06:09:44.632Z,9.10
2023-03-20T06:12:14.352Z,9.10
2023-03-20T06:14:43.042Z,9.10
2023-03-20T06:17:15.915Z,9.20
2023-03-20T06:19:48.709Z,9.20
2023-03-20T06:22:20.973Z,9.20
2023-03-20T06:24:50.740Z,9.30
2023-03-20T06:27:19.349Z,9.30
2023-03-20T06:29:49.146Z,9.40
2023-03-20T06:32:21.910Z,9.40
2023-03-20T06:34:56.593Z,9.40
2023-03-20T06:37:27.278Z,9.50
2023-03-20T06:40:05.276Z,9.50
2023-03-20T06:42:35.360Z,9.50
2023-03-20T06:45:04.330Z,9.50
2023-03-20T06:47:48.299Z,9.50
2023-03-20T06:50:19.230Z,9.50
2023-03-20T06:52:49.814Z,9.50
2023-03-20T06:56:06.761Z,9.40
2023-03-20T06:58:36.829Z,9.40
2023-03-20T07:01:13.386Z,9.40
2023-03-20T07:03:46.192Z,9.40
2023-03-20T07:06:23.976Z,9.40
2023-03-20T07:08:57.634Z,9.40
2023-03-20T07:11:30.313Z,9.40
2023-03-20T07:14:03.572Z,9.40
2023-03-20T07:16:51.904Z,9.40
2023-03-20T07:19:26.882Z,9.40
2023-03-20T07:22:08.533Z,9.50
2023-03-20T07:24:41.163Z,9.50
2023-03-20T07:27:13.677Z,9.50
2023-03-20T07:29:45.957Z,9.60
2023-03-20T07:32:22.300Z,9.60
2023-03-20T07:34:54.898Z,9.70
2023-03-20T07:37:22.438Z,9.70
2023-03-20T07:40:03.742Z,9.70
2023-03-20T07:42:33.521Z,9.70
2023-03-20T07:45:17.164Z,9.80
2023-03-20T07:47:46.273Z,9.80
2023-03-20T07:50:31.975Z,9.80
2023-03-20T07:53:00.621Z,9.80
2023-03-20T07:55:28.090Z,9.90
2023-03-20T07:57:54.848Z,9.90
2023-03-20T08:06:20.991Z,10.10
2023-03-20T08:14:45.675Z,10.50
2023-03-20T08:18:03.239Z,10.70
2023-03-20T08:21:02.031Z,10.80
2023-03-20T08:23:58.973Z,10.80
2023-03-20T08:26:27.941Z,10.80
2023-03-20T08:28:54.650Z,10.80
2023-03-20T08:31:24.629Z,10.90
2023-03-20T08:33:55.868Z,10.90
2023-03-20T08:36:24.971Z,10.90
2023-03-20T08:38:51.773Z,10.90
2023-03-20T08:44:21.128Z,11.00
2023-03-20T08:46:47.704Z,11.10
2023-03-20T08:52:04.181Z,11.10
2023-03-20T08:54:31.118Z,11.20
2023-03-20T08:57:00.253Z,11.20
2023-03-20T08:59:27.000Z,11.20
2023-03-20T09:02:00.285Z,11.30
2023-03-20T09:04:27.297Z,11.40
2023-03-20T09:06:54.304Z,11.60
2023-03-20T09:09:28.518Z,11.80
2023-03-20T09:11:56.899Z,11.90
2023-03-20T09:14:24.465Z,11.90
2023-03-20T09:16:51.174Z,11.90
2023-03-20T09:19:18.694Z,11.90
2023-03-20T09:21:46.264Z,11.90
2023-03-20T09:29:52.832Z,11.90
2023-03-20T09:32:21.003Z,11.90
2023-03-20T09:34:50.098Z,12.20
2023-03-20T09:37:19.294Z,12.40
2023-03-20T09:39:46.165Z,12.50
2023-03-20T09:42:27.394Z,12.50
2023-03-20T09:45:13.215Z,12.50
2023-03-20T09:47:39.985Z,12.40
2023-03-20T09:50:36.056Z,12.30
2023-03-20T09:53:12.271Z,12.10
2023-03-20T09:55:42.255Z,12.10
2023-03-20T09:58:25.467Z,12.10
2023-03-20T10:00:57.477Z,12.10
2023-03-20T10:06:27.404Z,12.10
2023-03-20T10:08:54.471Z,12.30
2023-03-20T10:11:36.155Z,12.60
2023-03-20T10:14:17.996Z,12.70
2023-03-20T10:16:59.168Z,13.00
2023-03-20T10:19:43.744Z,13.30
2023-03-20T10:25:08.138Z,13.50
2023-03-20T10:28:03.381Z,13.60
2023-03-20T10:30:46.343Z,13.60
2023-03-20T10:33:16.819Z,13.90
2023-03-20T10:35:47.319Z,14.10
2023-03-20T10:38:40.418Z,14.10
2023-03-20T10:41:14.570Z,14.00
2023-03-20T10:43:43.467Z,13.90
2023-03-20T10:47:01.855Z,13.50
2023-03-20T10:50:17.210Z,13.50
2023-03-20T10:52:47.563Z,13.30
2023-03-20T10:55:44.469Z,13.20
2023-03-20T10:58:22.791Z,13.30
2023-03-20T11:00:52.574Z,13.30
2023-03-20T11:03:28.422Z,13.50
2023-03-20T11:06:10.112Z,13.60
2023-03-20T11:08:42.572Z,14.00
2023-03-20T11:14:33.667Z,14.70
2023-03-20T11:17:03.185Z,14.30
2023-03-20T11:19:41.266Z,14.20
2023-03-20T11:22:24.392Z,14.10
2023-03-20T11:24:53.654Z,14.00
2023-03-20T11:27:29.759Z,14.00
2023-03-20T11:36:30.500Z,14.60
2023-03-20T11:39:13.946Z,15.00
2023-03-20T11:41:53.815Z,14.70
2023-03-20T11:44:23.443Z,14.60
2023-03-20T11:47:02.656Z,14.50
2023-03-20T11:49:31.442Z,14.80
2023-03-20T11:52:10.704Z,15.00
2023-03-20T11:57:36.780Z,15.10
2023-03-20T12:00:16.133Z,15.20
2023-03-20T12:02:44.034Z,15.20
2023-03-20T12:08:30.518Z,14.90
2023-03-20T12:11:03.144Z,14.90
2023-03-20T12:13:30.653Z,15.00
2023-03-20T12:16:12.945Z,15.00
2023-03-20T12:21:40.436Z,15.10
2023-03-20T12:24:28.895Z,15.10
2023-03-20T12:27:01.469Z,15.40
2023-03-20T12:29:59.363Z,15.80
2023-03-20T12:32:39.454Z,16.10
2023-03-20T12:35:19.126Z,16.40
2023-03-20T12:37:45.846Z,16.60
2023-03-20T12:40:16.609Z,16.90
2023-03-20T12:42:53.972Z,17.20
2023-03-20T12:45:31.870Z,17.10
2023-03-20T12:48:02.521Z,17.10
2023-03-20T12:51:18.891Z,17.10
2023-03-20T12:54:26.506Z,17.10
2023-03-20T12:57:20.502Z,17.30
2023-03-20T13:00:14.559Z,17.20
2023-03-20T13:03:13.691Z,17.50
2023-03-20T13:06:07.448Z,17.60
2023-03-20T13:08:39.276Z,17.20
2023-03-20T13:11:08.615Z,16.80
2023-03-20T13:17:26.450Z,16.60
2023-03-20T13:23:03.835Z,16.40
2023-03-20T13:25:34.184Z,16.00
2023-03-20T13:28:05.765Z,15.80
2023-03-20T13:31:05.213Z,15.50
2023-03-20T13:33:47.852Z,15.30
2023-03-20T13:36:14.655Z,15.30
2023-03-20T13:41:29.141Z,16.00
2023-03-20T13:44:03.481Z,16.10
2023-03-20T13:47:00.284Z,16.30
2023-03-20T13:49:58.762Z,15.90
2023-03-20T13:52:31.590Z,15.60
2023-03-20T13:54:59.232Z,15.30
2023-03-20T13:58:03.084Z,15.30
2023-03-20T14:01:00.761Z,15.40
2023-03-20T14:03:37.337Z,15.50
2023-03-20T14:06:05.699Z,15.60
2023-03-20T14:08:38.345Z,15.80
2023-03-20T14:11:20.473Z,15.90
2023-03-20T14:13:55.580Z,15.90
2023-03-20T14:16:47.031Z,15.90
2023-03-20T14:19:23.633Z,16.00
2023-03-20T14:25:15.552Z,15.80
2023-03-20T14:28:09.331Z,15.80
2023-03-20T14:30:46.020Z,15.80
2023-03-20T14:33:13.699Z,15.60
2023-03-20T14:35:44.938Z,15.20
2023-03-20T14:41:28.524Z,14.80
2023-03-20T14:44:12.532Z,14.80
2023-03-20T14:46:48.460Z,14.90
2023-03-20T14:49:53.712Z,15.00
2023-03-20T14:52:42.819Z,15.10
2023-03-20T14:55:24.411Z,15.20
2023-03-20T14:57:56.801Z,15.30
2023-03-20T15:00:49.899Z,15.20
2023-03-20T15:03:21.279Z,15.20
2023-03-20T15:05:56.916Z,15.20
2023-03-20T15:08:29.848Z,15.20
2023-03-20T15:11:09.672Z,15.10
2023-03-20T15:16:26.839Z,15.00
2023-03-20T15:19:21.786Z,14.90
2023-03-20T15:21:51.262Z,14.90
2023-03-20T15:24:26.222Z,14.90
2023-03-20T15:26:57.010Z,14.90
2023-03-20T15:32:20.389Z,14.90
2023-03-20T15:34:51.148Z,14.80
2023-03-20T15:37:23.945Z,14.80
2023-03-20T15:39:58.498Z,14.80
2023-03-20T15:42:26.865Z,14.70
2023-03-20T15:44:55.082Z,14.70
2023-03-20T15:47:25.420Z,14.60
2023-03-20T15:50:01.980Z,14.60
2023-03-20T15:52:33.333Z,14.50
2023-03-20T15:55:07.235Z,14.40
2023-03-20T15:57:37.574Z,14.40
2023-03-20T16:00:14.780Z,14.40
2023-03-20T16:02:48.528Z,14.40
2023-03-20T16:05:17.771Z,14.30
2023-03-20T16:07:44.954Z,14.30
2023-03-20T16:10:29.378Z,14.30
2023-03-20T16:12:59.774Z,14.20
2023-03-20T16:15:32.107Z,14.20
2023-03-20T16:18:01.134Z,14.10
2023-03-20T16:20:35.809Z,14.00
2023-03-20T16:23:07.056Z,14.00
2023-03-20T16:25:45.551Z,13.90
2023-03-20T16:31:21.435Z,13.70
2023-03-20T16:33:51.293Z,13.60
2023-03-20T16:36:25.011Z,13.50
2023-03-20T16:39:05.584Z,13.50
2023-03-20T16:47:37.773Z,13.40
2023-03-20T16:50:33.425Z,13.40
2023-03-20T16:53:00.144Z,13.40
2023-03-20T16:55:32.342Z,13.40
2023-03-20T16:58:04.802Z,13.40
2023-03-20T17:03:58.934Z,13.30
2023-03-20T17:06:36.334Z,13.20
2023-03-20T17:12:13.230Z,13.10
2023-03-20T17:14:40.025Z,13.00
2023-03-20T17:17:21.719Z,13.00
2023-03-20T17:19:52.577Z,12.90
2023-03-20T17:25:10.446Z,12.90
2023-03-20T17:27:40.223Z,12.80
2023-03-20T17:33:01.191Z,12.70
2023-03-20T17:35:31.839Z,12.70
2023-03-20T17:38:02.012Z,12.70
2023-03-20T17:40:29.958Z,12.70
2023-03-20T17:46:23.759Z,12.70
2023-03-20T17:52:17.760Z,12.60
2023-03-20T17:54:47.848Z,12.60
2023-03-20T17:57:29.885Z,12.60
2023-03-20T18:00:00.237Z,12.60
2023-03-20T18:02:37.096Z,12.60
2023-03-20T18:05:11.192Z,12.60
2023-03-20T18:07:47.547Z,12.50
2023-03-20T18:12:58.944Z,12.40
2023-03-20T18:15:35.029Z,12.40
2023-03-20T18:18:05.079Z,12.40
2023-03-20T18:23:33.008Z,12.40
2023-03-20T18:26:01.526Z,12.30
2023-03-20T18:28:28.426Z,12.20
2023-03-20T18:34:19.988Z,12.20
2023-03-20T18:36:50.561Z,12.10
2023-03-20T18:39:23.981Z,12.10
2023-03-20T18:41:51.736Z,12.10
2023-03-20T18:44:18.592Z,12.00
2023-03-20T18:49:56.581Z,12.00
2023-03-20T18:52:25.129Z,11.90
2023-03-20T19:01:06.994Z,11.80
2023-03-20T19:03:59.070Z,11.80
2023-03-20T19:06:29.235Z,11.70
2023-03-20T19:09:06.127Z,11.70
2023-03-20T19:11:36.218Z,11.60
2023-03-20T19:14:03.073Z,11.60
2023-03-20T19:16:34.221Z,11.60
2023-03-20T19:19:08.238Z,11.50
2023-03-20T19:21:38.639Z,11.60
2023-03-20T19:27:01.097Z,11.50
2023-03-20T19:32:31.248Z,11.50
2023-03-20T19:35:44.221Z,11.40
2023-03-20T19:37:48.071Z,11.40
2023-03-20T19:43:16.274Z,11.40
2023-03-20T19:45:44.037Z,11.40
2023-03-20T19:51:27.618Z,11.40
2023-03-20T19:53:57.706Z,11.40
2023-03-20T19:59:29.085Z,11.40
2023-03-20T20:01:56.111Z,11.30
2023-03-20T20:10:29.538Z,11.30
2023-03-20T20:12:59.685Z,11.30
2023-03-20T20:18:08.210Z,11.30
2023-03-20T20:20:35.992Z,11.30
2023-03-20T20:28:58.913Z,11.30
2023-03-20T20:31:30.637Z,11.30
2023-03-20T20:34:36.774Z,11.30
2023-03-20T20:37:40.731Z,11.30
2023-03-20T20:39:40.373Z,11.30
2023-03-20T20:45:07.278Z,11.20
2023-03-20T20:47:34.261Z,11.20
2023-03-20T20:53:07.114Z,11.20
2023-03-20T21:07:13.061Z,11.00
2023-03-20T21:09:42.917Z,10.90
2023-03-20T21:12:26.403Z,10.90
2023-03-20T21:15:28.400Z,10.90
2023-03-20T21:18:03.398Z,10.90
2023-03-20T21:20:34.137Z,10.90
2023-03-20T21:29:04.378Z,10.90
2023-03-20T21:31:31.656Z,10.80
2023-03-20T21:33:58.374Z,10.70
2023-03-20T21:36:25.282Z,10.70
2023-03-20T21:39:09.499Z,10.60
2023-03-20T21:41:38.196Z,10.50
2023-03-20T21:44:06.942Z,10.50
2023-03-20T21:50:41.819Z,10.30
2023-03-20T21:59:20.837Z,10.20
2023-03-20T22:11:33.362Z,10.00
2023-03-20T22:14:17.658Z,10.10
2023-03-20T22:19:56.233Z,10.00
2023-03-20T22:25:52.683Z,10.00
2023-03-20T22:35:22.875Z,10.20
2023-03-20T22:41:09.550Z,10.10
2023-03-20T22:46:42.150Z,10.00
2023-03-20T22:49:05.040Z,10.00
2023-03-20T22:51:36.945Z,10.00
2023-03-20T22:54:07.806Z,9.90
2023-03-20T22:56:34.620Z,9.90
2023-03-20T22:59:01.169Z,9.90
2023-03-20T23:01:33.533Z,9.90
2023-03-20T23:04:01.955Z,9.90
2023-03-20T23:06:55.859Z,9.90
2023-03-20T23:09:22.777Z,9.90
2023-03-20T23:11:49.451Z,9.90
2023-03-20T23:14:21.541Z,9.90
2023-03-20T23:16:50.294Z,9.80
2023-03-20T23:19:17.111Z,9.80
2023-03-20T23:21:43.978Z,9.80
2023-03-20T23:24:10.940Z,9.80
2023-03-20T23:30:18.551Z,9.70
2023-03-20T23:32:45.290Z,9.70
2023-03-20T23:35:12.433Z,9.70
2023-03-20T23:37:40.678Z,9.70
2023-03-20T23:42:56.495Z,9.70
2023-03-20T23:45:49.048Z,9.70
2023-03-20T23:48:17.616Z,9.60
2023-03-20T23:53:55.430Z,9.60
2023-03-20T23:56:22.439Z,9.60
2023-03-20T23:58:58.308Z,9.60
